Time;durP1;ratioP1;P1;durP2;ratioP2;P2;SDS_P1;SDS_P2;PMS_P1;PMS_P2;Temp;Humidity;BMP_temperature;BMP_pressure;BME280_temperature;BME280_humidity;BME280_pressure;Samples;Min_cycle;Max_cycle;Signal;HPM_P1;HPM_P2
2024/02/11 00:02:12;;;;;;;0.20;0.20;;;6.90;99.90;;;;;;5042396;28;20038;-80
2024/02/11 00:04:38;;;;;;;0.10;0.10;;;6.90;99.90;;;;;;5043905;28;20108;-80
2024/02/11 00:07:06;;;;;;;0.10;0.10;;;6.90;99.90;;;;;;5041158;28;20115;-80
2024/02/11 00:09:32;;;;;;;0.20;0.20;;;6.80;99.90;;;;;;5024705;28;20746;-81
2024/02/11 00:11:58;;;;;;;0.10;0.10;;;6.80;99.90;;;;;;5050770;28;20032;-80
2024/02/11 00:14:26;;;;;;;0.10;0.10;;;6.80;99.90;;;;;;5053579;28;20102;-80
2024/02/11 00:16:53;;;;;;;0.10;0.10;;;6.80;99.90;;;;;;5033933;28;20071;-79
2024/02/11 00:19:19;;;;;;;0.22;0.22;;;6.70;99.90;;;;;;5056812;28;20055;-82
2024/02/11 00:21:44;;;;;;;0.10;0.10;;;6.70;99.90;;;;;;5054820;28;20020;-81
2024/02/11 00:24:10;;;;;;;0.10;0.10;;;6.70;99.90;;;;;;5058113;28;20033;-80
2024/02/11 00:26:37;;;;;;;0.10;0.10;;;6.70;99.90;;;;;;5060276;28;20021;-79
2024/02/11 00:29:03;;;;;;;0.10;0.10;;;6.80;99.90;;;;;;5043503;28;20032;-80
2024/02/11 00:31:28;;;;;;;0.17;0.17;;;6.80;99.90;;;;;;5036405;28;20110;-79
2024/02/11 00:33:56;;;;;;;0.08;0.08;;;6.70;99.90;;;;;;5043632;28;20033;-80
2024/02/11 00:36:21;;;;;;;0.32;0.32;;;6.80;99.90;;;;;;5041264;28;20029;-80
2024/02/11 00:38:47;;;;;;;0.10;0.10;;;6.70;99.90;;;;;;5056407;28;20040;-79
2024/02/11 00:41:13;;;;;;;0.10;0.10;;;6.80;99.90;;;;;;5046318;28;20021;-79
2024/02/11 00:43:38;;;;;;;0.10;0.10;;;6.80;99.90;;;;;;5053075;28;20559;-79
2024/02/11 00:46:04;;;;;;;0.10;0.10;;;6.70;99.90;;;;;;5054156;28;20032;-79
2024/02/11 00:48:30;;;;;;;0.20;0.20;;;6.70;99.90;;;;;;5053617;28;20040;-81
2024/02/11 00:50:56;;;;;;;0.03;0.03;;;6.80;99.90;;;;;;5064550;28;20087;-82
2024/02/11 00:53:25;;;;;;;0.00;0.00;;;6.70;99.90;;;;;;5059284;28;20028;-81
2024/02/11 00:55:51;;;;;;;0.10;0.10;;;6.70;99.90;;;;;;5040300;28;20765;-81
2024/02/11 00:58:18;;;;;;;0.10;0.10;;;6.70;99.90;;;;;;5043157;28;20025;-80
2024/02/11 01:00:46;;;;;;;0.10;0.10;;;6.80;99.90;;;;;;5058283;28;20078;-81
2024/02/11 01:03:13;;;;;;;0.05;0.05;;;6.70;99.90;;;;;;5055147;28;20467;-81
2024/02/11 01:05:43;;;;;;;0.10;0.10;;;6.80;99.90;;;;;;5039157;28;20603;-82
2024/02/11 01:08:10;;;;;;;0.00;0.00;;;6.80;99.90;;;;;;5056440;28;20043;-80
2024/02/11 01:10:36;;;;;;;0.68;0.68;;;6.70;99.90;;;;;;5051472;28;20040;-80
2024/02/11 01:13:02;;;;;;;0.30;0.30;;;6.70;99.90;;;;;;5056411;28;20040;-80
2024/02/11 01:15:28;;;;;;;0.10;0.10;;;6.70;99.90;;;;;;5040061;28;20039;-80
2024/02/11 01:17:53;;;;;;;0.10;0.10;;;6.70;99.90;;;;;;5057184;28;20815;-79
2024/02/11 01:20:19;;;;;;;0.10;0.10;;;6.70;99.90;;;;;;5058953;28;20025;-79
2024/02/11 01:22:47;;;;;;;0.10;0.10;;;6.80;99.90;;;;;;5044153;28;20036;-81
2024/02/11 01:25:19;;;;;;;4.03;1.00;;;6.80;99.90;;;;;;5029025;28;20068;-81
2024/02/11 01:27:46;;;;;;;0.10;0.10;;;6.90;99.90;;;;;;5048624;28;20029;-80
2024/02/11 01:30:13;;;;;;;;;;;6.90;99.90;;;;;;5051899;28;20754;-80
2024/02/11 01:32:38;;;;;;;;;;;6.80;99.90;;;;;;5049380;28;19912;-79
2024/02/11 01:35:07;;;;;;;0.10;0.10;;;6.80;99.90;;;;;;5058687;28;19913;-81
2024/02/11 01:37:34;;;;;;;0.10;0.10;;;6.70;99.90;;;;;;5048396;28;20545;-81
2024/02/11 01:40:00;;;;;;;0.03;0.03;;;6.70;99.90;;;;;;5048399;28;20075;-83
2024/02/11 01:42:25;;;;;;;0.10;0.10;;;6.70;99.90;;;;;;5036039;28;20032;-82
2024/02/11 01:44:51;;;;;;;0.10;0.10;;;6.60;99.90;;;;;;5050640;28;20021;-83
2024/02/11 01:47:18;;;;;;;0.10;0.10;;;6.70;99.90;;;;;;5059363;28;20098;-82
2024/02/11 01:49:44;;;;;;;;;;;6.60;99.90;;;;;;5051791;28;20045;-82
2024/02/11 01:52:12;;;;;;;0.10;0.10;;;6.60;99.90;;;;;;5055818;28;20039;-80
2024/02/11 01:54:38;;;;;;;0.10;0.10;;;6.60;99.90;;;;;;5050752;28;20037;-82
2024/02/11 01:57:05;;;;;;;0.10;0.10;;;6.60;99.90;;;;;;5051968;28;20036;-83
2024/02/11 01:59:36;;;;;;;0.10;0.10;;;6.60;99.90;;;;;;5031902;28;20060;-82
2024/02/11 02:02:08;;;;;;;0.10;0.10;;;6.70;99.90;;;;;;5058293;28;20070;-81
2024/02/11 02:04:35;;;;;;;0.10;0.10;;;6.60;99.90;;;;;;5052111;28;20060;-81
2024/02/11 02:07:02;;;;;;;;;;;6.60;99.90;;;;;;5049046;28;20032;-81
2024/02/11 02:09:27;;;;;;;0.10;0.10;;;6.60;99.90;;;;;;5053511;28;19924;-82
2024/02/11 02:11:53;;;;;;;0.10;0.10;;;6.80;99.90;;;;;;5060377;28;20488;-83
2024/02/11 02:14:19;;;;;;;0.10;0.10;;;6.70;99.90;;;;;;5035596;28;20115;-83
2024/02/11 02:16:45;;;;;;;0.10;0.10;;;6.60;99.90;;;;;;5059208;28;20900;-83
2024/02/11 02:19:12;;;;;;;0.10;0.10;;;6.70;99.90;;;;;;5037670;28;20044;-82
2024/02/11 02:21:46;;;;;;;0.10;0.10;;;6.60;99.90;;;;;;5035062;28;20029;-82
2024/02/11 02:24:13;;;;;;;0.10;0.10;;;6.70;99.90;;;;;;5036104;28;20442;-82
2024/02/11 02:26:39;;;;;;;0.10;0.10;;;6.60;99.90;;;;;;5031613;28;20029;-82
2024/02/11 02:29:04;;;;;;;0.10;0.10;;;6.60;99.90;;;;;;5052228;28;20043;-82
2024/02/11 02:31:30;;;;;;;0.10;0.10;;;6.70;99.90;;;;;;5053205;28;20098;-82
2024/02/11 02:33:55;;;;;;;0.10;0.10;;;6.70;99.90;;;;;;5047870;28;20733;-81
2024/02/11 02:36:22;;;;;;;0.10;0.10;;;6.60;99.90;;;;;;5052820;28;20527;-81
2024/02/11 02:38:48;;;;;;;0.10;0.10;;;6.60;99.90;;;;;;5040850;28;20028;-81
2024/02/11 02:41:13;;;;;;;0.00;0.00;;;6.50;99.90;;;;;;5056868;28;20021;-80
2024/02/11 02:43:39;;;;;;;0.10;0.10;;;6.50;99.90;;;;;;5051231;28;20066;-80
2024/02/11 02:46:07;;;;;;;0.10;0.10;;;6.50;99.90;;;;;;5057384;28;20562;-80
2024/02/11 02:48:32;;;;;;;0.10;0.10;;;6.70;99.90;;;;;;5057479;28;20032;-79
2024/02/11 02:51:00;;;;;;;0.10;0.10;;;6.60;99.90;;;;;;5056992;28;20086;-80
2024/02/11 02:53:26;;;;;;;0.10;0.10;;;6.50;99.90;;;;;;5036282;28;20040;-80
2024/02/11 02:55:52;;;;;;;0.10;0.10;;;6.50;99.90;;;;;;5056648;28;20048;-80
2024/02/11 02:58:18;;;;;;;0.00;0.00;;;6.60;99.90;;;;;;5055939;28;20539;-80
2024/02/11 03:00:44;;;;;;;0.10;0.10;;;6.50;99.90;;;;;;5057333;28;20043;-81
2024/02/11 03:03:10;;;;;;;0.10;0.10;;;6.60;99.90;;;;;;5061854;28;20075;-81
2024/02/11 03:05:40;;;;;;;0.10;0.10;;;6.60;99.90;;;;;;5056407;28;20060;-80
2024/02/11 03:08:06;;;;;;;0.10;0.10;;;6.60;99.90;;;;;;5059756;28;20029;-82
2024/02/11 03:10:33;;;;;;;0.10;0.10;;;6.60;99.90;;;;;;5059545;28;20032;-82
2024/02/11 03:12:59;;;;;;;0.00;0.00;;;6.50;99.90;;;;;;5035483;28;20674;-82
2024/02/11 03:15:26;;;;;;;0.10;0.10;;;6.50;99.90;;;;;;5032919;28;20155;-83
2024/02/11 03:17:52;;;;;;;0.00;0.00;;;6.60;99.90;;;;;;5045910;28;20029;-83
2024/02/11 03:20:17;;;;;;;0.10;0.10;;;6.60;99.90;;;;;;5046438;28;20032;-81
2024/02/11 03:22:44;;;;;;;0.10;0.10;;;6.60;99.90;;;;;;5054330;28;20906;-81
2024/02/11 03:25:09;;;;;;;0.10;0.10;;;6.60;99.90;;;;;;5056174;28;20396;-81
2024/02/11 03:27:37;;;;;;;0.00;0.00;;;6.60;99.90;;;;;;5042342;28;20025;-82
2024/02/11 03:30:05;;;;;;;0.10;0.10;;;6.60;99.90;;;;;;5061658;28;20030;-82
2024/02/11 03:32:31;;;;;;;0.10;0.10;;;6.60;99.90;;;;;;5073132;28;20028;-81
2024/02/11 03:34:57;;;;;;;0.10;0.10;;;6.70;99.90;;;;;;5052947;28;20068;-80
2024/02/11 03:37:22;;;;;;;0.10;0.10;;;6.70;99.90;;;;;;5055525;28;21118;-83
2024/02/11 03:39:51;;;;;;;0.00;0.00;;;6.70;99.90;;;;;;5049067;28;20539;-83
2024/02/11 03:42:19;;;;;;;0.10;0.10;;;6.70;99.90;;;;;;5044385;28;20060;-81
2024/02/11 03:44:45;;;;;;;0.10;0.10;;;6.80;99.90;;;;;;5039675;28;20071;-82
2024/02/11 03:47:11;;;;;;;0.10;0.10;;;6.70;99.90;;;;;;5047135;28;20073;-83
2024/02/11 03:49:37;;;;;;;;;;;6.70;99.90;;;;;;5039687;28;20480;-82
2024/02/11 03:52:03;;;;;;;0.10;0.10;;;6.60;99.90;;;;;;5057350;28;19943;-82
2024/02/11 03:54:29;;;;;;;0.10;0.10;;;6.70;99.90;;;;;;5039946;28;20029;-81
2024/02/11 03:56:55;;;;;;;0.10;0.10;;;6.70;99.90;;;;;;5053521;28;20025;-83
2024/02/11 03:59:22;;;;;;;0.10;0.10;;;6.70;99.90;;;;;;5054299;28;20056;-84
2024/02/11 04:01:48;;;;;;;0.10;0.10;;;6.80;99.90;;;;;;5037350;28;20035;-84
2024/02/11 04:04:14;;;;;;;0.10;0.10;;;6.70;99.90;;;;;;5067197;28;20028;-83
2024/02/11 04:06:41;;;;;;;0.10;0.10;;;6.60;99.90;;;;;;5052435;28;20027;-82
2024/02/11 04:09:09;;;;;;;0.10;0.10;;;6.70;99.90;;;;;;5040225;28;20052;-82
2024/02/11 04:11:35;;;;;;;0.10;0.10;;;6.70;99.90;;;;;;5037931;28;20021;-82
2024/02/11 04:14:00;;;;;;;0.10;0.10;;;6.70;99.90;;;;;;5037839;28;20112;-82
2024/02/11 04:16:26;;;;;;;0.10;0.10;;;6.70;99.90;;;;;;5042750;28;20774;-83
2024/02/11 04:18:53;;;;;;;0.10;0.10;;;6.70;99.90;;;;;;5055409;28;20025;-83
2024/02/11 04:21:20;;;;;;;0.00;0.00;;;6.60;99.90;;;;;;5059226;28;20102;-82
2024/02/11 04:23:49;;;;;;;0.10;0.10;;;6.60;99.90;;;;;;5022777;28;20106;-82
2024/02/11 04:26:17;;;;;;;0.10;0.10;;;6.60;99.90;;;;;;5057195;28;20032;-82
2024/02/11 04:28:47;;;;;;;0.10;0.10;;;6.60;99.90;;;;;;5060590;28;20025;-82
2024/02/11 04:31:13;;;;;;;0.10;0.10;;;6.60;99.90;;;;;;5034435;28;20045;-82
2024/02/11 04:33:39;;;;;;;0.10;0.10;;;6.60;99.90;;;;;;5052976;28;20705;-81
2024/02/11 04:36:06;;;;;;;0.10;0.10;;;6.60;99.90;;;;;;5048109;28;20021;-83
2024/02/11 04:38:34;;;;;;;0.10;0.10;;;6.60;99.90;;;;;;5041414;28;20032;-84
2024/02/11 04:41:00;;;;;;;0.10;0.10;;;6.70;99.90;;;;;;5038612;28;20029;-81
2024/02/11 04:43:27;;;;;;;0.10;0.10;;;6.70;99.90;;;;;;5043412;28;20032;-82
2024/02/11 04:45:53;;;;;;;0.10;0.10;;;6.60;99.90;;;;;;5032769;28;21083;-81
2024/02/11 04:48:24;;;;;;;0.10;0.10;;;6.60;99.90;;;;;;5051738;28;20052;-84
2024/02/11 04:50:51;;;;;;;0.00;0.00;;;6.60;99.90;;;;;;5038934;28;20311;-84
2024/02/11 04:53:18;;;;;;;0.10;0.10;;;6.60;99.90;;;;;;5035433;28;20064;-84
2024/02/11 04:55:49;;;;;;;0.10;0.10;;;6.70;99.90;;;;;;5040249;28;20029;-84
2024/02/11 04:58:16;;;;;;;0.10;0.10;;;6.80;99.90;;;;;;5031738;28;20098;-83
2024/02/11 05:00:42;;;;;;;0.10;0.10;;;6.90;99.90;;;;;;5039269;28;20778;-83
2024/02/11 05:03:08;;;;;;;0.10;0.10;;;6.90;99.90;;;;;;5040660;28;20037;-84
2024/02/11 05:05:36;;;;;;;0.10;0.10;;;6.90;99.90;;;;;;5047387;28;20037;-84
2024/02/11 05:08:04;;;;;;;0.00;0.00;;;6.90;99.90;;;;;;5048870;28;20029;-85
2024/02/11 05:10:34;;;;;;;0.10;0.10;;;6.90;99.90;;;;;;5047246;28;20035;-84
2024/02/11 05:13:04;;;;;;;0.10;0.10;;;6.90;99.90;;;;;;5036630;28;20085;-85
2024/02/11 05:15:33;;;;;;;0.10;0.10;;;6.90;99.90;;;;;;5039513;28;20029;-84
2024/02/11 05:18:00;;;;;;;0.10;0.10;;;6.90;99.90;;;;;;5051420;28;20035;-82
2024/02/11 05:20:28;;;;;;;0.10;0.10;;;6.90;99.90;;;;;;5030855;28;20823;-83
2024/02/11 05:22:57;;;;;;;0.20;0.20;;;6.90;99.90;;;;;;5047057;28;20126;-82
2024/02/11 05:25:25;;;;;;;0.47;0.47;;;6.90;99.90;;;;;;5054093;28;20028;-83
2024/02/11 05:27:56;;;;;;;0.10;0.10;;;6.80;99.90;;;;;;5058891;28;20029;-83
2024/02/11 05:30:24;;;;;;;0.10;0.10;;;6.80;99.90;;;;;;5053139;28;20025;-82
2024/02/11 05:32:51;;;;;;;0.10;0.10;;;6.70;99.90;;;;;;5049134;28;20036;-84
2024/02/11 05:35:17;;;;;;;;;;;6.60;99.90;;;;;;5049246;28;20167;-84
2024/02/11 05:37:46;;;;;;;0.10;0.10;;;6.60;99.90;;;;;;5048095;28;20058;-84
2024/02/11 05:40:12;;;;;;;0.10;0.10;;;6.50;99.90;;;;;;5048971;28;20029;-83
2024/02/11 05:42:40;;;;;;;0.10;0.10;;;6.60;99.90;;;;;;5045010;28;20031;-85
2024/02/11 05:45:07;;;;;;;0.10;0.10;;;6.60;99.90;;;;;;5046975;28;20036;-82
2024/02/11 05:47:33;;;;;;;0.05;0.05;;;6.60;99.90;;;;;;5036021;28;20040;-81
2024/02/11 05:49:59;;;;;;;0.88;0.43;;;6.60;99.90;;;;;;5046192;28;20071;-83
2024/02/11 05:52:25;;;;;;;0.10;0.10;;;6.70;99.90;;;;;;5041628;28;20028;-83
2024/02/11 05:54:51;;;;;;;0.10;0.10;;;6.70;99.90;;;;;;5036090;28;20266;-84
2024/02/11 05:57:17;;;;;;;0.00;0.00;;;6.60;99.90;;;;;;5053380;28;20032;-83
2024/02/11 05:59:42;;;;;;;0.10;0.10;;;6.60;99.90;;;;;;5060490;28;20070;-84
2024/02/11 06:02:09;;;;;;;0.10;0.10;;;6.60;99.90;;;;;;5037793;28;20044;-84
2024/02/11 06:04:34;;;;;;;0.10;0.10;;;6.60;99.90;;;;;;5037018;28;20467;-82
2024/02/11 06:07:00;;;;;;;0.10;0.10;;;6.40;99.90;;;;;;5054667;28;20039;-82
2024/02/11 06:09:26;;;;;;;0.10;0.10;;;6.30;99.90;;;;;;5041129;28;20044;-84
2024/02/11 06:11:53;;;;;;;0.10;0.10;;;6.30;99.90;;;;;;5024717;28;20033;-83
2024/02/11 06:14:19;;;;;;;0.10;0.10;;;6.20;99.90;;;;;;5043330;28;20037;-82
2024/02/11 06:16:45;;;;;;;0.00;0.00;;;6.30;99.90;;;;;;5049713;28;20423;-80
2024/02/11 06:19:11;;;;;;;0.10;0.10;;;6.20;99.90;;;;;;5028150;28;20025;-79
2024/02/11 06:21:36;;;;;;;0.10;0.10;;;6.20;99.90;;;;;;5060355;28;20040;-80
2024/02/11 06:24:05;;;;;;;0.10;0.10;;;6.30;99.90;;;;;;5046357;28;20785;-82
2024/02/11 06:26:30;;;;;;;0.10;0.10;;;6.30;99.90;;;;;;5047953;28;20082;-82
2024/02/11 06:28:58;;;;;;;0.10;0.10;;;6.30;99.90;;;;;;5050117;28;20032;-81
2024/02/11 06:31:24;;;;;;;0.10;0.10;;;6.40;99.90;;;;;;5049603;28;20036;-80
2024/02/11 06:33:51;;;;;;;0.10;0.10;;;6.30;99.90;;;;;;5049225;28;20095;-80
2024/02/11 06:36:16;;;;;;;0.10;0.10;;;6.40;99.90;;;;;;5033379;28;20040;-80
2024/02/11 06:38:44;;;;;;;0.10;0.10;;;6.30;99.90;;;;;;5058656;28;20029;-81
2024/02/11 06:41:09;;;;;;;0.10;0.10;;;6.40;99.90;;;;;;5053431;28;20025;-81
2024/02/11 06:43:35;;;;;;;0.10;0.10;;;6.30;99.90;;;;;;5033815;28;20050;-81
2024/02/11 06:46:03;;;;;;;0.10;0.10;;;6.30;99.90;;;;;;5054929;28;20661;-81
2024/02/11 06:48:29;;;;;;;0.10;0.10;;;6.40;99.90;;;;;;5047038;28;20074;-79
2024/02/11 06:50:54;;;;;;;0.10;0.10;;;6.40;99.90;;;;;;5039323;28;20048;-81
2024/02/11 06:53:20;;;;;;;0.10;0.10;;;6.40;99.90;;;;;;5035918;28;20028;-80
2024/02/11 06:55:47;;;;;;;0.10;0.10;;;6.30;99.90;;;;;;5037799;28;20155;-83
2024/02/11 06:58:13;;;;;;;0.10;0.10;;;6.30;99.90;;;;;;5031802;28;20029;-85
2024/02/11 07:00:38;;;;;;;0.10;0.10;;;6.40;99.90;;;;;;5047643;28;20032;-81
2024/02/11 07:03:05;;;;;;;0.10;0.10;;;6.30;99.90;;;;;;5046792;28;20021;-81
2024/02/11 07:05:30;;;;;;;0.10;0.10;;;6.30;99.90;;;;;;5056235;28;20085;-83
2024/02/11 07:07:59;;;;;;;0.10;0.10;;;6.30;99.90;;;;;;5046484;28;20025;-83
2024/02/11 07:10:26;;;;;;;0.10;0.10;;;6.20;99.90;;;;;;5037438;28;20032;-80
2024/02/11 07:12:51;;;;;;;0.10;0.10;;;6.20;99.90;;;;;;5035900;28;20025;-82
2024/02/11 07:15:19;;;;;;;0.10;0.10;;;6.10;99.90;;;;;;5051695;28;20032;-78
2024/02/11 07:17:44;;;;;;;0.63;0.63;;;6.20;99.90;;;;;;5053202;28;20040;-80
2024/02/11 07:20:14;;;;;;;0.00;0.00;;;6.10;99.90;;;;;;5045091;28;20021;-80
2024/02/11 07:22:42;;;;;;;0.10;0.10;;;6.20;99.90;;;;;;5050502;28;20025;-78
2024/02/11 07:25:09;;;;;;;0.38;0.38;;;6.20;99.90;;;;;;5048461;28;20029;-77
2024/02/11 07:27:35;;;;;;;0.10;0.10;;;6.20;99.90;;;;;;5049445;28;20029;-81
2024/02/11 07:30:01;;;;;;;0.10;0.10;;;6.30;99.90;;;;;;5052908;28;20037;-86
2024/02/11 07:32:28;;;;;;;0.10;0.10;;;6.30;99.90;;;;;;5051404;28;20283;-83
2024/02/11 07:34:56;;;;;;;0.10;0.10;;;6.30;99.90;;;;;;5035573;28;20123;-85
2024/02/11 07:37:22;;;;;;;0.10;0.10;;;6.30;99.90;;;;;;5042397;28;20037;-83
2024/02/11 07:39:49;;;;;;;0.10;0.10;;;6.20;99.90;;;;;;5031993;28;20589;-83
2024/02/11 07:42:15;;;;;;;;;;;6.30;99.90;;;;;;5040817;28;20037;-85
2024/02/11 07:44:41;;;;;;;0.10;0.10;;;6.20;99.90;;;;;;5037827;28;19918;-81
2024/02/11 07:47:08;;;;;;;0.10;0.10;;;6.30;99.90;;;;;;5049480;28;20033;-81
2024/02/11 07:49:34;;;;;;;0.10;0.10;;;6.30;99.90;;;;;;5052591;28;20108;-85
2024/02/11 07:51:59;;;;;;;0.10;0.10;;;6.30;99.90;;;;;;5038777;28;20043;-81
2024/02/11 07:54:25;;;;;;;0.10;0.10;;;6.30;99.90;;;;;;5048696;28;20029;-83
2024/02/11 07:56:52;;;;;;;0.10;0.10;;;6.40;99.90;;;;;;5044831;28;20349;-83
2024/02/11 07:59:18;;;;;;;0.10;0.10;;;6.40;99.90;;;;;;5034525;28;20029;-84
2024/02/11 08:01:44;;;;;;;0.00;0.00;;;6.40;99.90;;;;;;5055954;28;20551;-83
2024/02/11 08:04:10;;;;;;;0.10;0.10;;;6.50;99.90;;;;;;5057514;28;20110;-83
2024/02/11 08:06:36;;;;;;;0.10;0.10;;;6.50;99.90;;;;;;5056853;28;20035;-79
2024/02/11 08:09:02;;;;;;;0.10;0.10;;;6.70;99.90;;;;;;5062279;28;20028;-81
2024/02/11 08:11:33;;;;;;;0.10;0.10;;;6.60;99.90;;;;;;5039533;28;20056;-81
2024/02/11 08:13:58;;;;;;;0.10;0.10;;;6.80;99.90;;;;;;5056080;28;20025;-80
2024/02/11 08:16:25;;;;;;;0.10;0.10;;;6.70;99.90;;;;;;5056121;28;20043;-82
2024/02/11 08:18:54;;;;;;;0.10;0.10;;;6.60;99.90;;;;;;5045155;28;20052;-84
2024/02/11 08:21:20;;;;;;;0.10;0.10;;;6.80;99.90;;;;;;5034658;28;20040;-83
2024/02/11 08:23:45;;;;;;;0.10;0.10;;;6.80;99.90;;;;;;5021199;28;20025;-82
2024/02/11 08:26:11;;;;;;;0.10;0.10;;;6.80;99.90;;;;;;5048091;28;20060;-81
2024/02/11 08:28:37;;;;;;;1.03;1.03;;;6.80;99.90;;;;;;5049782;28;20058;-82
2024/02/11 08:31:04;;;;;;;0.10;0.10;;;6.80;99.90;;;;;;5045348;28;20029;-82
2024/02/11 08:33:29;;;;;;;0.10;0.10;;;6.80;99.90;;;;;;5025241;28;20120;-82
2024/02/11 08:35:56;;;;;;;0.10;0.10;;;6.90;99.90;;;;;;5062783;28;20638;-82
2024/02/11 08:38:22;;;;;;;0.10;0.10;;;6.80;99.90;;;;;;5054230;28;20995;-84
2024/02/11 08:40:47;;;;;;;0.10;0.10;;;7.00;99.90;;;;;;5037914;28;20115;-83
2024/02/11 08:43:13;;;;;;;0.10;0.10;;;7.00;99.90;;;;;;5030653;28;20028;-84
2024/02/11 08:45:39;;;;;;;0.10;0.10;;;7.00;99.90;;;;;;5069430;28;20036;-86
2024/02/11 08:48:05;;;;;;;0.13;0.13;;;7.00;99.90;;;;;;5045435;28;20124;-86
2024/02/11 08:50:30;;;;;;;0.10;0.10;;;6.90;99.90;;;;;;5034724;28;20155;-88
2024/02/11 08:52:56;;;;;;;0.45;0.45;;;6.90;99.90;;;;;;5050308;28;20132;-88
2024/02/11 08:55:21;;;;;;;0.10;0.10;;;7.00;99.90;;;;;;5052387;28;20107;-87
2024/02/11 08:57:48;;;;;;;0.03;0.03;;;7.00;99.90;;;;;;5050957;28;20479;-90
2024/02/11 09:00:18;;;;;;;0.10;0.10;;;7.10;99.90;;;;;;5035298;28;20035;-89
2024/02/11 09:02:45;;;;;;;0.10;0.10;;;7.00;99.90;;;;;;5034364;28;20103;-87
2024/02/11 09:05:11;;;;;;;0.10;0.10;;;7.00;99.90;;;;;;5055213;28;20059;-87
2024/02/11 09:07:42;;;;;;;0.10;0.10;;;7.10;99.90;;;;;;5034122;28;20029;-83
2024/02/11 09:10:09;;;;;;;0.10;0.10;;;7.00;99.90;;;;;;5047229;28;20045;-78
2024/02/11 09:12:34;;;;;;;0.10;0.10;;;7.20;99.90;;;;;;5031733;28;20025;-78
2024/02/11 09:15:00;;;;;;;0.10;0.10;;;7.20;99.90;;;;;;5040974;28;20587;-78
2024/02/11 09:17:27;;;;;;;0.10;0.10;;;7.20;99.90;;;;;;5042628;28;20077;-78
2024/02/11 09:19:53;;;;;;;0.10;0.10;;;7.10;99.90;;;;;;5041064;28;20040;-79
2024/02/11 09:22:18;;;;;;;0.10;0.10;;;7.00;99.90;;;;;;5030473;28;20055;-78
2024/02/11 09:24:44;;;;;;;0.10;0.10;;;7.00;99.90;;;;;;5054843;28;20056;-79
2024/02/11 09:27:10;;;;;;;0.00;0.00;;;7.10;99.90;;;;;;5039950;28;20040;-79
2024/02/11 09:29:37;;;;;;;0.10;0.10;;;7.20;99.90;;;;;;5034593;28;20035;-79
2024/02/11 09:32:03;;;;;;;0.10;0.10;;;7.70;99.90;;;;;;5052049;28;20061;-79
2024/02/11 09:34:29;;;;;;;0.10;0.10;;;8.70;99.90;;;;;;5050712;28;20033;-79
2024/02/11 09:36:55;;;;;;;0.90;0.90;;;8.60;99.90;;;;;;5040438;28;20695;-82
2024/02/11 09:39:20;;;;;;;0.10;0.10;;;8.20;99.90;;;;;;5043264;28;20028;-80
2024/02/11 09:41:47;;;;;;;0.10;0.10;;;8.00;99.90;;;;;;5034402;28;20036;-82
2024/02/11 09:44:18;;;;;;;0.10;0.10;;;8.00;99.90;;;;;;5036890;28;20037;-81
2024/02/11 09:46:45;;;;;;;0.10;0.10;;;8.00;99.90;;;;;;5053162;28;20091;-81
2024/02/11 09:49:16;;;;;;;0.10;0.10;;;8.60;99.90;;;;;;5052086;28;20032;-79
2024/02/11 09:51:43;;;;;;;0.00;0.00;;;8.70;99.90;;;;;;5042496;28;20033;-79
2024/02/11 09:54:09;;;;;;;0.15;0.15;;;9.00;99.90;;;;;;5043299;28;20404;-81
2024/02/11 09:56:35;;;;;;;0.00;0.00;;;9.10;99.90;;;;;;5047002;28;20029;-82
2024/02/11 09:59:02;;;;;;;0.10;0.10;;;9.00;99.90;;;;;;5046275;28;20737;-81
2024/02/11 10:01:28;;;;;;;0.10;0.10;;;8.60;99.90;;;;;;5045109;28;20036;-79
2024/02/11 10:03:57;;;;;;;3.40;3.20;;;8.30;99.90;;;;;;5043412;28;20037;-79
2024/02/11 10:06:32;;;;;;;0.00;0.00;;;8.20;99.90;;;;;;5030945;28;20163;-82
2024/02/11 10:08:58;;;;;;;0.10;0.10;;;8.30;99.90;;;;;;5045134;28;20037;-77
2024/02/11 10:11:26;;;;;;;0.10;0.10;;;8.40;99.90;;;;;;5045388;28;20033;-79
2024/02/11 10:13:58;;;;;;;0.10;0.10;;;8.80;99.90;;;;;;5042548;28;20043;-79
2024/02/11 10:16:25;;;;;;;0.10;0.10;;;8.50;99.90;;;;;;5040473;28;20025;-78
2024/02/11 10:18:51;;;;;;;0.10;0.10;;;8.20;99.90;;;;;;5050321;28;20070;-80
2024/02/11 10:21:18;;;;;;;0.05;0.05;;;7.80;99.90;;;;;;5039202;28;20056;-82
2024/02/11 10:23:44;;;;;;;0.10;0.10;;;7.60;99.90;;;;;;5019205;28;20110;-81
2024/02/11 10:26:12;;;;;;;0.10;0.10;;;7.50;99.90;;;;;;5026820;28;20059;-78
2024/02/11 10:28:39;;;;;;;0.10;0.10;;;7.50;99.90;;;;;;5043094;28;20020;-80
2024/02/11 10:31:05;;;;;;;0.10;0.10;;;7.50;99.90;;;;;;5056026;28;20032;-82
2024/02/11 10:33:32;;;;;;;0.10;0.10;;;7.80;99.90;;;;;;5042245;28;20041;-82
2024/02/11 10:36:03;;;;;;;0.10;0.10;;;8.10;99.90;;;;;;5018380;28;20441;-80
2024/02/11 10:38:31;;;;;;;0.10;0.10;;;8.40;99.90;;;;;;5019784;28;20029;-80
2024/02/11 10:40:58;;;;;;;0.10;0.10;;;8.60;99.90;;;;;;5022744;28;20048;-81
2024/02/11 10:43:26;;;;;;;0.10;0.10;;;8.50;99.90;;;;;;5045680;28;20423;-79
2024/02/11 10:45:52;;;;;;;0.10;0.10;;;8.60;99.90;;;;;;5033794;28;20021;-78
2024/02/11 10:48:19;;;;;;;0.10;0.10;;;9.10;99.90;;;;;;5024930;28;20110;-77
2024/02/11 10:51:04;;;;;;;;;;;8.90;99.90;;;;;;5028978;28;20057;-78
2024/02/11 10:53:35;;;;;;;0.10;0.10;;;9.00;99.90;;;;;;5062534;28;19916;-80
2024/02/11 10:56:04;;;;;;;0.10;0.10;;;8.80;99.90;;;;;;5041604;28;20037;-78
2024/02/11 10:58:36;;;;;;;0.00;0.00;;;8.90;99.90;;;;;;5028853;28;20591;-78
2024/02/11 11:01:04;;;;;;;0.10;0.10;;;8.90;99.90;;;;;;5051150;28;20161;-79
2024/02/11 11:03:36;;;;;;;0.10;0.10;;;9.20;99.90;;;;;;5049160;28;20021;-79
2024/02/11 11:06:02;;;;;;;0.10;0.10;;;9.20;99.90;;;;;;5049285;28;20094;-79
2024/02/11 11:08:30;;;;;;;0.10;0.10;;;9.30;99.90;;;;;;5055840;28;20033;-80
2024/02/11 11:10:59;;;;;;;0.10;0.10;;;9.00;99.90;;;;;;5059766;28;20037;-79
2024/02/11 11:13:25;;;;;;;0.10;0.10;;;8.80;99.90;;;;;;5025483;28;20033;-79
2024/02/11 11:15:52;;;;;;;0.05;0.05;;;8.50;99.90;;;;;;5038853;28;20056;-80
2024/02/11 11:18:22;;;;;;;1.30;1.20;;;8.30;99.90;;;;;;5035002;28;20025;-80
2024/02/11 11:20:52;;;;;;;0.10;0.10;;;8.40;99.90;;;;;;5064615;28;20810;-80
2024/02/11 11:23:18;;;;;;;34.38;1.77;;;8.00;99.90;;;;;;5048503;28;20028;-82
2024/02/11 11:25:43;;;;;;;0.10;0.10;;;7.70;99.90;;;;;;5037835;28;20033;-81
2024/02/11 11:28:16;;;;;;;0.35;0.35;;;7.50;99.90;;;;;;5049393;28;20078;-80
2024/02/11 11:30:42;;;;;;;0.10;0.10;;;7.60;99.90;;;;;;5040508;28;20021;-81
2024/02/11 11:33:11;;;;;;;0.10;0.10;;;8.30;99.90;;;;;;5034602;28;20025;-79
2024/02/11 11:35:37;;;;;;;0.00;0.00;;;8.70;99.90;;;;;;5051737;28;20036;-79
2024/02/11 11:38:03;;;;;;;0.13;0.13;;;8.70;99.90;;;;;;5055273;28;20036;-80
2024/02/11 11:40:30;;;;;;;0.00;0.00;;;8.90;99.90;;;;;;5031319;28;20034;-81
2024/02/11 11:42:55;;;;;;;;;;;9.20;99.90;;;;;;5050728;28;20115;-80
2024/02/11 11:45:21;;;;;;;0.10;0.10;;;9.50;99.90;;;;;;5061608;28;20031;-80
2024/02/11 11:47:55;;;;;;;0.10;0.10;;;10.10;99.90;;;;;;5057025;28;20893;-81
2024/02/11 11:50:21;;;;;;;0.10;0.10;;;9.80;99.90;;;;;;5043143;28;20053;-80
2024/02/11 11:52:57;;;;;;;0.55;0.55;;;9.70;99.90;;;;;;5053409;28;20116;-80
2024/02/11 11:55:24;;;;;;;0.10;0.10;;;9.80;99.90;;;;;;5038986;28;20527;-81
2024/02/11 11:57:56;;;;;;;0.00;0.00;;;10.20;99.90;;;;;;5049166;28;20097;-80
2024/02/11 12:00:21;;;;;;;0.00;0.00;;;9.80;99.90;;;;;;5032063;28;20596;-80
2024/02/11 12:02:47;;;;;;;0.05;0.05;;;9.50;99.90;;;;;;5054576;28;20036;-81
2024/02/11 12:05:13;;;;;;;0.10;0.10;;;9.50;99.90;;;;;;5054533;28;20091;-80
2024/02/11 12:07:39;;;;;;;0.10;0.10;;;9.40;99.90;;;;;;5050350;28;20034;-82
2024/02/11 12:10:05;;;;;;;0.10;0.10;;;9.50;99.90;;;;;;5047631;28;20025;-81
2024/02/11 12:12:32;;;;;;;0.00;0.00;;;9.40;99.90;;;;;;5033218;28;20608;-81
2024/02/11 12:14:58;;;;;;;0.10;0.10;;;9.50;99.90;;;;;;5046321;28;20032;-80
2024/02/11 12:17:23;;;;;;;0.10;0.10;;;9.20;99.90;;;;;;5051199;28;20049;-81
2024/02/11 12:19:49;;;;;;;0.10;0.10;;;9.00;99.90;;;;;;5049153;28;20025;-81
2024/02/11 12:22:15;;;;;;;0.10;0.10;;;9.10;99.90;;;;;;5047845;28;20920;-84
2024/02/11 12:24:43;;;;;;;0.03;0.03;;;9.30;99.90;;;;;;5038389;28;20025;-81
2024/02/11 12:27:17;;;;;;;0.10;0.10;;;9.50;99.90;;;;;;5033801;28;20032;-82
2024/02/11 12:29:58;;;;;;;0.10;0.10;;;9.60;99.90;;;;;;5036971;28;20132;-81
2024/02/11 12:32:25;;;;;;;0.10;0.10;;;10.00;99.90;;;;;;5047723;28;20036;-80
2024/02/11 12:34:56;;;;;;;0.10;0.10;;;10.20;99.90;;;;;;5036222;28;20077;-81
2024/02/11 12:37:23;;;;;;;0.00;0.00;;;10.10;99.90;;;;;;5027548;28;20048;-81
2024/02/11 12:39:50;;;;;;;0.10;0.10;;;10.10;99.90;;;;;;5041364;28;20059;-80
2024/02/11 12:42:16;;;;;;;0.20;0.20;;;10.00;99.90;;;;;;5047038;28;20128;-79
2024/02/11 12:44:42;;;;;;;0.00;0.00;;;9.90;99.90;;;;;;5054116;28;20270;-77
2024/02/11 12:47:08;;;;;;;0.10;0.10;;;9.80;99.90;;;;;;5034768;28;20431;-78
2024/02/11 12:49:34;;;;;;;0.10;0.10;;;9.40;99.90;;;;;;5028587;28;20056;-79
2024/02/11 12:52:00;;;;;;;0.10;0.10;;;8.70;99.90;;;;;;5050526;28;20041;-81
2024/02/11 12:54:25;;;;;;;0.00;0.00;;;8.30;99.90;;;;;;5053933;28;20031;-81
2024/02/11 12:56:51;;;;;;;0.10;0.10;;;8.20;99.90;;;;;;5055030;28;20902;-80
2024/02/11 12:59:16;;;;;;;0.30;0.30;;;8.10;99.90;;;;;;5048849;28;20583;-79